createdAt,value
2022-12-04T00:01:22.628Z,29.40
2022-12-04T00:03:54.159Z,29.60
2022-12-04T00:06:23.244Z,28.55
2022-12-04T00:08:52.289Z,28.80
2022-12-04T00:11:23.108Z,30.35
2022-12-04T00:13:51.354Z,28.67
2022-12-04T00:16:21.239Z,30.77
2022-12-04T00:18:49.361Z,28.63
2022-12-04T00:21:18.769Z,28.65
2022-12-04T00:23:47.798Z,29.77
2022-12-04T00:26:17.041Z,29.08
2022-12-04T00:28:46.849Z,29.95
2022-12-04T00:31:17.262Z,29.92
2022-12-04T00:33:45.581Z,29.38
2022-12-04T00:36:15.834Z,28.60
2022-12-04T00:38:44.669Z,29.55
2022-12-04T00:41:14.054Z,29.83
2022-12-04T00:43:42.200Z,30.75
2022-12-04T00:46:11.643Z,30.98
2022-12-04T00:48:40.258Z,29.90
2022-12-04T00:51:10.864Z,30.35
2022-12-04T00:53:39.362Z,29.87
2022-12-04T00:56:08.933Z,31.15
2022-12-04T00:58:37.230Z,30.48
2022-12-04T01:01:07.320Z,29.92
2022-12-04T01:03:36.868Z,30.02
2022-12-04T01:06:05.991Z,28.60
2022-12-04T01:08:34.927Z,30.40
2022-12-04T01:11:07.192Z,30.95
2022-12-04T01:13:35.197Z,29.67
2022-12-04T01:16:03.322Z,30.77
2022-12-04T01:18:31.308Z,31.27
2022-12-04T01:21:00.755Z,31.80
2022-12-04T01:23:28.692Z,33.05
2022-12-04T01:25:58.918Z,32.60
2022-12-04T01:28:27.391Z,31.20
2022-12-04T01:31:02.952Z,33.40
2022-12-04T01:33:31.836Z,31.55
2022-12-04T01:36:02.452Z,30.63
2022-12-04T01:38:30.754Z,30.90
2022-12-04T01:40:59.016Z,32.53
2022-12-04T01:43:28.466Z,32.40
2022-12-04T01:45:57.703Z,32.85
2022-12-04T01:48:30.809Z,33.60
2022-12-04T01:51:05.453Z,32.67
2022-12-04T01:53:36.175Z,31.48
2022-12-04T01:56:05.525Z,32.77
2022-12-04T01:58:38.858Z,32.75
2022-12-04T02:01:09.295Z,34.70
2022-12-04T02:03:39.053Z,32.40
2022-12-04T02:06:09.059Z,32.38
2022-12-04T02:08:38.421Z,32.53
2022-12-04T02:11:17.098Z,33.35
2022-12-04T02:13:57.235Z,33.05
2022-12-04T02:16:32.188Z,32.05
2022-12-04T02:19:13.338Z,34.70
2022-12-04T02:21:47.909Z,35.10
2022-12-04T02:24:32.086Z,33.35
2022-12-04T02:27:03.468Z,33.30
2022-12-04T02:29:40.485Z,34.22
2022-12-04T02:32:16.480Z,32.80
2022-12-04T02:34:49.109Z,34.13
2022-12-04T02:37:20.461Z,34.95
2022-12-04T02:39:55.515Z,34.40
2022-12-04T02:42:31.106Z,33.80
2022-12-04T02:45:04.883Z,33.28
2022-12-04T02:47:34.436Z,34.03
2022-12-04T02:50:07.075Z,34.65
2022-12-04T02:52:39.173Z,33.97
2022-12-04T02:55:11.775Z,34.10
2022-12-04T02:57:45.014Z,32.80
2022-12-04T03:00:16.025Z,35.42
2022-12-04T03:02:51.409Z,34.30
2022-12-04T03:05:24.522Z,34.73
2022-12-04T03:07:57.375Z,33.63
2022-12-04T03:10:29.167Z,33.75
2022-12-04T03:13:01.527Z,35.40
2022-12-04T03:15:34.224Z,35.05
2022-12-04T03:18:04.508Z,35.40
2022-12-04T03:20:35.985Z,33.80
2022-12-04T03:23:10.554Z,34.53
2022-12-04T03:25:45.261Z,34.35
2022-12-04T03:28:20.992Z,34.75
2022-12-04T03:30:53.574Z,34.80
2022-12-04T03:33:29.133Z,34.60
2022-12-04T03:36:01.217Z,34.00
2022-12-04T03:38:36.825Z,34.08
2022-12-04T03:41:09.890Z,35.88
2022-12-04T03:43:40.355Z,33.90
2022-12-04T03:46:13.755Z,35.70
2022-12-04T03:48:45.204Z,34.63
2022-12-04T03:51:18.971Z,35.22
2022-12-04T03:53:55.670Z,34.90
2022-12-04T03:56:27.519Z,35.38
2022-12-04T03:58:59.671Z,35.63
2022-12-04T04:01:34.136Z,36.28
2022-12-04T04:04:07.510Z,33.72
2022-12-04T04:06:40.467Z,35.60
2022-12-04T04:09:11.857Z,35.58
2022-12-04T04:11:44.454Z,36.05
2022-12-04T04:14:34.112Z,35.07
2022-12-04T04:17:25.117Z,35.35
2022-12-04T04:20:16.713Z,35.30
2022-12-04T04:23:04.348Z,35.90
2022-12-04T04:25:33.205Z,35.10
2022-12-04T04:28:01.178Z,36.58
2022-12-04T04:30:32.923Z,35.20
2022-12-04T04:33:12.168Z,35.17
2022-12-04T04:35:49.546Z,35.33
2022-12-04T04:38:24.443Z,34.67
2022-12-04T04:40:57.737Z,34.67
2022-12-04T04:43:30.411Z,34.78
2022-12-04T04:46:01.806Z,34.05
2022-12-04T04:48:34.965Z,36.92
2022-12-04T04:51:04.975Z,34.25
2022-12-04T04:53:37.448Z,36.03
2022-12-04T04:56:07.571Z,36.72
2022-12-04T04:58:36.097Z,33.15
2022-12-04T05:01:08.493Z,34.45
2022-12-04T05:03:38.117Z,33.78
2022-12-04T05:06:06.274Z,35.60
2022-12-04T05:08:34.273Z,33.88
2022-12-04T05:11:02.426Z,36.60
2022-12-04T05:13:31.476Z,34.08
2022-12-04T05:16:00.301Z,34.33
2022-12-04T05:18:29.087Z,33.70
2022-12-04T05:20:57.936Z,34.42
2022-12-04T05:23:26.771Z,34.03
2022-12-04T05:26:00.887Z,35.97
2022-12-04T05:28:29.249Z,35.35
2022-12-04T05:30:57.790Z,35.87
2022-12-04T05:33:25.804Z,35.58
2022-12-04T05:36:03.248Z,35.15
2022-12-04T05:38:31.183Z,34.45
2022-12-04T05:40:59.631Z,34.75
2022-12-04T05:43:27.922Z,34.20
2022-12-04T05:45:55.857Z,35.08
2022-12-04T05:48:23.774Z,34.63
2022-12-04T05:50:51.722Z,35.45
2022-12-04T05:53:20.988Z,35.25
2022-12-04T05:55:55.847Z,33.60
2022-12-04T05:58:23.780Z,35.17
2022-12-04T06:00:52.028Z,36.22
2022-12-04T06:03:20.098Z,35.58
2022-12-04T06:05:48.370Z,35.47
2022-12-04T06:08:16.912Z,36.00
2022-12-04T06:10:46.260Z,35.50
2022-12-04T06:13:14.216Z,35.00
2022-12-04T06:15:42.213Z,36.25
2022-12-04T06:18:10.249Z,34.58
2022-12-04T06:20:38.276Z,36.15
2022-12-04T06:23:06.329Z,36.75
2022-12-04T06:25:35.524Z,34.00
2022-12-04T06:28:04.888Z,36.10
2022-12-04T06:30:34.470Z,35.65
2022-12-04T06:33:02.442Z,34.70
2022-12-04T06:35:30.424Z,37.50
2022-12-04T06:37:58.393Z,38.53
2022-12-04T06:40:26.356Z,36.30
2022-12-04T06:42:54.307Z,37.40
2022-12-04T06:45:23.926Z,36.17
2022-12-04T06:47:52.047Z,35.10
2022-12-04T06:50:20.127Z,35.77
2022-12-04T06:52:48.200Z,36.13
2022-12-04T06:55:16.228Z,33.83
2022-12-04T06:57:44.163Z,35.05
2022-12-04T07:00:12.870Z,35.70
2022-12-04T07:02:42.298Z,36.25
2022-12-04T07:05:10.771Z,36.85
2022-12-04T07:07:38.743Z,35.67
2022-12-04T07:10:07.988Z,36.60
2022-12-04T07:12:36.039Z,36.40
2022-12-04T07:15:04.085Z,34.05
2022-12-04T07:17:32.013Z,35.72
2022-12-04T07:20:01.307Z,37.15
2022-12-04T07:22:29.282Z,34.67
2022-12-04T07:24:57.217Z,34.40
2022-12-04T07:27:25.137Z,35.88
2022-12-04T07:29:53.923Z,36.30
2022-12-04T07:32:22.107Z,35.15
2022-12-04T07:34:50.069Z,35.38
2022-12-04T07:37:19.463Z,35.80
2022-12-04T07:39:47.451Z,32.90
2022-12-04T07:42:19.643Z,33.45
2022-12-04T07:44:50.580Z,33.92
2022-12-04T07:47:18.541Z,34.05
2022-12-04T07:49:46.555Z,33.22
2022-12-04T07:52:14.462Z,35.10
2022-12-04T07:54:43.827Z,33.60
2022-12-04T07:57:11.807Z,34.97
2022-12-04T07:59:39.799Z,34.03
2022-12-04T08:02:07.972Z,33.80
2022-12-04T08:04:36.034Z,35.50
2022-12-04T08:07:03.996Z,32.37
2022-12-04T08:09:32.556Z,34.97
2022-12-04T08:12:01.841Z,33.60
2022-12-04T08:14:29.799Z,34.38
2022-12-04T08:16:57.765Z,32.92
2022-12-04T08:19:25.940Z,35.80
2022-12-04T08:21:55.338Z,34.22
2022-12-04T08:24:23.238Z,32.97
2022-12-04T08:26:51.204Z,32.47
2022-12-04T08:29:20.474Z,32.33
2022-12-04T08:31:48.401Z,33.65
2022-12-04T08:34:16.480Z,34.60
2022-12-04T08:36:44.419Z,34.05
2022-12-04T08:39:13.098Z,33.67
2022-12-04T08:41:41.146Z,35.78
2022-12-04T08:44:10.307Z,32.70
2022-12-04T08:46:40.165Z,33.22
2022-12-04T08:49:08.157Z,32.95
2022-12-04T08:51:36.245Z,34.10
2022-12-04T08:54:06.405Z,33.92
2022-12-04T08:56:35.384Z,32.53
2022-12-04T08:59:03.590Z,35.23
2022-12-04T09:01:31.953Z,33.92
2022-12-04T09:04:01.522Z,32.92
2022-12-04T09:06:29.525Z,32.85
2022-12-04T09:08:58.396Z,33.80
2022-12-04T09:11:28.329Z,33.95
2022-12-04T09:13:56.796Z,33.45
2022-12-04T09:16:26.646Z,34.58
2022-12-04T09:18:55.360Z,33.90
2022-12-04T09:21:26.309Z,35.05
2022-12-04T09:23:54.417Z,34.70
2022-12-04T09:26:25.370Z,32.88
2022-12-04T09:28:54.554Z,34.13
2022-12-04T09:31:23.766Z,33.80
2022-12-04T09:33:52.003Z,32.70
2022-12-04T09:36:20.571Z,35.15
2022-12-04T09:38:51.406Z,35.22
2022-12-04T09:41:38.422Z,35.07
2022-12-04T09:44:11.503Z,33.28
2022-12-04T09:46:44.482Z,33.97
2022-12-04T09:49:18.317Z,33.92
2022-12-04T09:51:47.684Z,35.58
2022-12-04T09:54:19.281Z,34.10
2022-12-04T09:56:53.554Z,34.38
2022-12-04T09:59:25.438Z,33.90
2022-12-04T10:01:59.812Z,35.75
2022-12-04T10:04:27.817Z,33.60
2022-12-04T10:07:03.904Z,34.35
2022-12-04T10:09:40.248Z,32.97
2022-12-04T10:12:16.452Z,34.03
2022-12-04T10:14:52.865Z,32.67
2022-12-04T10:17:36.727Z,33.22
2022-12-04T10:20:16.736Z,32.90
2022-12-04T10:22:59.180Z,32.60
2022-12-04T10:25:30.697Z,35.63
2022-12-04T10:28:03.762Z,32.78
2022-12-04T10:30:35.963Z,34.13
2022-12-04T10:33:15.583Z,32.10
2022-12-04T10:35:45.619Z,31.58
2022-12-04T10:38:24.628Z,32.17
2022-12-04T10:41:00.897Z,30.38
2022-12-04T10:43:35.892Z,28.88
2022-12-04T10:46:03.995Z,31.37
2022-12-04T10:48:38.346Z,30.90
2022-12-04T10:51:06.621Z,29.20
2022-12-04T10:53:37.501Z,30.30
2022-12-04T10:56:15.981Z,31.05
2022-12-04T10:58:43.912Z,30.20
2022-12-04T11:01:14.002Z,29.35
2022-12-04T11:03:58.706Z,30.00
2022-12-04T11:06:27.452Z,27.37
2022-12-04T11:08:56.750Z,29.60
2022-12-04T11:11:28.640Z,28.38
2022-12-04T11:14:04.937Z,29.15
2022-12-04T11:16:38.629Z,27.90
2022-12-04T11:19:25.593Z,27.48
2022-12-04T11:21:55.604Z,26.40
2022-12-04T11:24:26.183Z,26.20
2022-12-04T11:26:56.185Z,26.77
2022-12-04T11:29:31.445Z,27.70
2022-12-04T11:32:05.713Z,27.65
2022-12-04T11:34:39.348Z,28.15
2022-12-04T11:37:16.749Z,27.00
2022-12-04T11:39:46.275Z,26.55
2022-12-04T11:42:20.581Z,26.15
2022-12-04T11:44:53.385Z,24.88
2022-12-04T11:47:23.386Z,25.15
2022-12-04T11:50:11.297Z,23.88
2022-12-04T11:52:51.109Z,26.30
2022-12-04T11:55:28.823Z,24.80
2022-12-04T11:58:17.808Z,24.37
2022-12-04T12:00:51.969Z,24.30
2022-12-04T12:03:24.277Z,25.58
2022-12-04T12:06:24.143Z,25.05
2022-12-04T12:09:07.534Z,25.08
2022-12-04T12:11:39.768Z,25.80
2022-12-04T12:14:17.308Z,23.50
2022-12-04T12:16:59.214Z,25.00
2022-12-04T12:19:54.221Z,23.90
2022-12-04T12:22:37.317Z,24.20
2022-12-04T12:25:16.163Z,23.08
2022-12-04T12:27:59.484Z,23.95
2022-12-04T12:30:33.632Z,22.37
2022-12-04T12:33:11.738Z,22.23
2022-12-04T12:35:42.939Z,22.30
2022-12-04T12:38:13.840Z,21.57
2022-12-04T12:40:44.860Z,22.43
2022-12-04T12:43:17.666Z,21.52
2022-12-04T12:45:52.619Z,22.75
2022-12-04T12:48:28.905Z,22.30
2022-12-04T12:53:53.518Z,21.15
2022-12-04T12:56:30.984Z,20.45
2022-12-04T12:59:02.801Z,20.70
2022-12-04T13:01:40.855Z,19.17
2022-12-04T13:04:14.400Z,18.30
2022-12-04T13:06:46.237Z,18.98
2022-12-04T13:09:19.659Z,18.80
2022-12-04T13:11:50.745Z,19.58
2022-12-04T13:14:18.819Z,19.35
2022-12-04T13:16:51.976Z,17.85
2022-12-04T13:19:23.076Z,16.40
2022-12-04T13:22:00.423Z,17.92
2022-12-04T13:24:49.156Z,17.92
2022-12-04T13:27:28.220Z,17.77
2022-12-04T13:30:11.001Z,17.30
2022-12-04T13:33:10.277Z,16.98
2022-12-04T13:35:56.331Z,18.52
2022-12-04T13:38:30.467Z,18.50
2022-12-04T13:41:00.775Z,17.15
2022-12-04T13:43:45.982Z,16.85
2022-12-04T13:46:27.952Z,16.90
2022-12-04T13:49:09.158Z,17.77
2022-12-04T13:51:39.460Z,17.60
2022-12-04T13:54:31.636Z,17.13
2022-12-04T13:57:17.747Z,15.73
2022-12-04T13:59:46.446Z,15.50
2022-12-04T14:02:29.882Z,16.17
2022-12-04T14:05:02.310Z,15.18
2022-12-04T14:07:32.652Z,16.52
2022-12-04T14:10:04.781Z,14.73
2022-12-04T14:12:36.309Z,15.65
2022-12-04T14:15:07.552Z,15.83
2022-12-04T14:17:37.627Z,14.57
2022-12-04T14:20:10.225Z,15.70
2022-12-04T14:22:43.708Z,15.90
2022-12-04T14:25:35.462Z,15.40
2022-12-04T14:28:15.571Z,16.38
2022-12-04T14:30:45.265Z,15.23
2022-12-04T14:33:20.078Z,15.97
2022-12-04T14:35:51.528Z,14.07
2022-12-04T14:38:22.108Z,15.57
2022-12-04T14:40:52.302Z,15.60
2022-12-04T14:43:23.052Z,16.70
2022-12-04T14:45:59.205Z,15.57
2022-12-04T14:48:37.007Z,15.07
2022-12-04T14:51:15.740Z,15.40
2022-12-04T14:53:50.205Z,16.30
2022-12-04T14:56:32.368Z,17.48
2022-12-04T14:59:06.420Z,15.55
2022-12-04T15:01:38.021Z,16.65
2022-12-04T15:04:14.079Z,15.57
2022-12-04T15:06:44.948Z,17.45
2022-12-04T15:09:37.779Z,16.75
2022-12-04T15:12:37.016Z,15.00
2022-12-04T15:15:14.605Z,15.97
2022-12-04T15:17:42.525Z,16.40
2022-12-04T15:20:13.101Z,16.40
2022-12-04T15:22:42.848Z,16.63
2022-12-04T15:25:20.430Z,17.15
2022-12-04T15:27:50.698Z,16.75
2022-12-04T15:30:20.708Z,16.70
2022-12-04T15:32:52.869Z,17.40
2022-12-04T15:35:26.995Z,17.80
2022-12-04T15:37:57.005Z,18.27
2022-12-04T15:40:27.773Z,18.13
2022-12-04T15:43:06.898Z,17.42
2022-12-04T15:45:35.422Z,18.85
2022-12-04T15:48:03.472Z,19.90
2022-12-04T15:50:32.249Z,20.13
2022-12-04T15:53:07.940Z,20.27
2022-12-04T15:55:40.746Z,22.00
2022-12-04T15:58:19.123Z,20.58
2022-12-04T16:00:47.464Z,20.95
2022-12-04T16:03:25.874Z,22.25
2022-12-04T16:06:04.630Z,23.25
2022-12-04T16:08:35.962Z,24.95
2022-12-04T16:11:05.779Z,23.83
2022-12-04T16:13:37.875Z,23.50
2022-12-04T16:16:07.979Z,23.95
2022-12-04T16:18:36.262Z,23.90
2022-12-04T16:21:04.339Z,25.40
2022-12-04T16:23:33.925Z,26.48
2022-12-04T16:26:01.835Z,26.83
2022-12-04T16:28:29.720Z,26.42
2022-12-04T16:30:57.713Z,26.48
2022-12-04T16:33:25.728Z,27.35
2022-12-04T16:35:53.703Z,28.60
2022-12-04T16:38:21.662Z,28.02
2022-12-04T16:40:50.961Z,27.70
2022-12-04T16:43:19.028Z,28.30
2022-12-04T16:45:49.348Z,25.83
2022-12-04T16:48:17.524Z,26.75
2022-12-04T16:50:46.287Z,29.05
2022-12-04T16:53:17.161Z,28.40
2022-12-04T16:55:47.365Z,27.10
2022-12-04T16:58:17.552Z,27.85
2022-12-04T17:00:54.764Z,27.08
2022-12-04T17:03:26.430Z,31.10
2022-12-04T17:05:54.469Z,29.05
2022-12-04T17:08:22.677Z,29.60
2022-12-04T17:10:51.116Z,28.15
2022-12-04T17:13:21.216Z,29.30
2022-12-04T17:15:49.714Z,27.92
2022-12-04T17:18:21.244Z,28.95
2022-12-04T17:20:49.945Z,27.98
2022-12-04T17:23:17.989Z,29.27
2022-12-04T17:25:47.168Z,29.17
2022-12-04T17:28:15.199Z,29.17
2022-12-04T17:30:47.236Z,29.05
2022-12-04T17:33:15.276Z,27.95
2022-12-04T17:35:44.518Z,29.08
2022-12-04T17:38:12.549Z,27.90
2022-12-04T17:40:40.610Z,27.50
2022-12-04T17:43:09.955Z,27.50
2022-12-04T17:45:40.962Z,28.00
2022-12-04T17:48:10.269Z,29.30
2022-12-04T17:50:38.231Z,27.30
2022-12-04T17:53:06.160Z,27.50
2022-12-04T17:55:35.341Z,28.13
2022-12-04T17:58:03.294Z,27.08
2022-12-04T18:00:31.302Z,28.15
2022-12-04T18:02:59.358Z,28.47
2022-12-04T18:05:29.744Z,27.45
2022-12-04T18:07:57.743Z,27.02
2022-12-04T18:10:25.772Z,27.00
2022-12-04T18:12:53.753Z,27.05
2022-12-04T18:15:21.672Z,27.00
2022-12-04T18:17:49.786Z,25.70
2022-12-04T18:20:17.775Z,27.85
2022-12-04T18:22:47.075Z,25.65
2022-12-04T18:25:15.000Z,25.13
2022-12-04T18:27:42.923Z,25.42
2022-12-04T18:30:12.548Z,27.38
2022-12-04T18:32:40.504Z,25.80
2022-12-04T18:35:09.290Z,25.77
2022-12-04T18:37:37.434Z,27.95
2022-12-04T18:40:08.368Z,28.33
2022-12-04T18:42:36.499Z,26.73
2022-12-04T18:45:04.788Z,26.95
2022-12-04T18:47:32.704Z,26.48
2022-12-04T18:50:00.785Z,25.92
2022-12-04T18:52:28.835Z,25.90
2022-12-04T18:54:56.799Z,26.47
2022-12-04T18:57:26.144Z,25.58
2022-12-04T18:59:54.361Z,24.38
2022-12-04T19:02:23.145Z,24.52
2022-12-04T19:04:51.366Z,24.73
2022-12-04T19:07:19.756Z,25.00
2022-12-04T19:10:21.069Z,23.50
2022-12-04T19:12:36.981Z,22.85
2022-12-04T19:15:05.411Z,22.88
2022-12-04T19:17:33.377Z,22.40
2022-12-04T19:20:01.586Z,21.83
2022-12-04T19:22:30.764Z,22.15
2022-12-04T19:24:58.692Z,24.23
2022-12-04T19:27:27.631Z,22.80
2022-12-04T19:29:57.128Z,22.98
2022-12-04T19:32:25.488Z,23.05
2022-12-04T19:34:53.443Z,22.13
2022-12-04T19:37:21.454Z,22.10
2022-12-04T19:39:49.458Z,21.13
2022-12-04T19:42:17.441Z,23.70
2022-12-04T19:44:49.629Z,23.30
2022-12-04T19:47:19.907Z,23.95
2022-12-04T19:49:48.256Z,20.55
2022-12-04T19:52:16.541Z,20.65
2022-12-04T19:54:44.542Z,21.13
2022-12-04T19:57:12.922Z,21.30
2022-12-04T19:59:45.988Z,21.90
2022-12-04T20:02:15.159Z,23.27
2022-12-04T20:04:45.938Z,23.10
2022-12-04T20:07:13.957Z,23.70
2022-12-04T20:09:44.927Z,23.25
2022-12-04T20:12:15.454Z,24.52
2022-12-04T20:14:43.417Z,24.27
2022-12-04T20:17:11.387Z,24.90
2022-12-04T20:19:39.479Z,25.40
2022-12-04T20:22:08.773Z,25.00
2022-12-04T20:24:36.736Z,24.47
2022-12-04T20:27:04.821Z,25.15
2022-12-04T20:29:33.199Z,25.45
2022-12-04T20:32:01.252Z,25.05
2022-12-04T20:34:30.591Z,26.27
2022-12-04T20:36:59.021Z,26.25
2022-12-04T20:39:28.409Z,25.80
2022-12-04T20:41:56.524Z,25.60
2022-12-04T20:44:24.511Z,25.75
2022-12-04T20:46:53.320Z,27.00
2022-12-04T20:49:22.551Z,25.40
2022-12-04T20:51:51.827Z,26.40
2022-12-04T20:54:21.783Z,25.98
2022-12-04T20:56:53.065Z,26.90
2022-12-04T20:59:23.271Z,27.50
2022-12-04T21:01:52.510Z,27.10
2022-12-04T21:04:21.085Z,26.40
2022-12-04T21:06:49.519Z,27.50
2022-12-04T21:09:20.043Z,26.25
2022-12-04T21:11:51.501Z,27.20
2022-12-04T21:14:38.325Z,26.73
2022-12-04T21:17:09.484Z,26.67
2022-12-04T21:19:37.825Z,27.08
2022-12-04T21:22:06.162Z,26.73
2022-12-04T21:24:38.492Z,27.30
2022-12-04T21:27:12.423Z,26.80
2022-12-04T21:29:43.979Z,27.30
2022-12-04T21:32:11.900Z,27.88
2022-12-04T21:34:39.840Z,28.63
2022-12-04T21:37:07.788Z,27.08
2022-12-04T21:39:36.995Z,27.90
2022-12-04T21:42:22.516Z,27.02
2022-12-04T21:44:51.785Z,26.02
2022-12-04T21:47:19.815Z,28.40
2022-12-04T21:49:47.731Z,27.20
2022-12-04T21:52:16.584Z,26.80
2022-12-04T21:54:44.586Z,28.25
2022-12-04T21:57:12.512Z,27.10
2022-12-04T21:59:40.423Z,26.88
2022-12-04T22:02:10.990Z,26.98
2022-12-04T22:04:38.997Z,29.15
2022-12-04T22:07:06.894Z,26.00
2022-12-04T22:09:34.971Z,27.50
2022-12-04T22:12:10.376Z,27.27
2022-12-04T22:14:50.723Z,28.13
2022-12-04T22:17:20.029Z,26.00
2022-12-04T22:19:47.985Z,27.58
2022-12-04T22:22:15.885Z,28.35
2022-12-04T22:24:44.028Z,28.63
2022-12-04T22:27:14.959Z,29.42
2022-12-04T22:29:51.216Z,26.85
2022-12-04T22:32:21.211Z,27.05
2022-12-04T22:34:49.573Z,28.20
2022-12-04T22:37:17.541Z,27.50
2022-12-04T22:39:45.497Z,27.42
2022-12-04T22:42:13.472Z,26.77
2022-12-04T22:44:41.383Z,29.02
2022-12-04T22:47:09.469Z,29.35
2022-12-04T22:49:38.908Z,28.88
2022-12-04T22:52:06.918Z,28.17
2022-12-04T22:54:34.991Z,28.33
2022-12-04T22:57:02.888Z,29.08
2022-12-04T22:59:30.952Z,27.67
2022-12-04T23:02:00.107Z,27.88
2022-12-04T23:04:29.975Z,27.50
2022-12-04T23:06:59.270Z,28.20
2022-12-04T23:09:27.946Z,28.65
2022-12-04T23:11:57.039Z,29.48
2022-12-04T23:14:27.024Z,28.52
2022-12-04T23:16:55.308Z,28.90
2022-12-04T23:19:24.340Z,28.60
2022-12-04T23:21:56.891Z,26.90
2022-12-04T23:24:26.828Z,28.15
2022-12-04T23:26:54.987Z,29.48
2022-12-04T23:29:51.522Z,27.80
2022-12-04T23:32:10.895Z,28.70
2022-12-04T23:34:39.326Z,30.50
2022-12-04T23:37:07.261Z,29.20
2022-12-04T23:39:36.749Z,29.75
2022-12-04T23:42:04.888Z,27.80
2022-12-04T23:44:32.820Z,28.10
2022-12-04T23:47:00.839Z,27.27
2022-12-04T23:49:28.975Z,27.23
2022-12-04T23:51:56.908Z,26.95
2022-12-04T23:54:24.891Z,25.98
2022-12-04T23:56:54.171Z,26.40
2022-12-04T23:59:22.107Z,26.70
